sensor_id;sensor_type;location;lat;lon;timestamp;pressure;altitude;pressure_sealevel;temperature;humidity
77112;BME280;66064;50.226;14.344;2023-09-19T00:00:46;98851.28;;;16.85;100.00
77112;BME280;66064;50.226;14.344;2023-09-19T00:03:33;98867.38;;;16.87;100.00
77112;BME280;66064;50.226;14.344;2023-09-19T00:05:58;98877.41;;;16.78;100.00
77112;BME280;66064;50.226;14.344;2023-09-19T00:08:26;98881.31;;;16.67;100.00
77112;BME280;66064;50.226;14.344;2023-09-19T00:10:54;98865.41;;;16.56;100.00
77112;BME280;66064;50.226;14.344;2023-09-19T00:13:20;98876.06;;;16.59;100.00
77112;BME280;66064;50.226;14.344;2023-09-19T00:15:47;98851.47;;;16.40;100.00
77112;BME280;66064;50.226;14.344;2023-09-19T00:18:14;98871.81;;;16.51;100.00
77112;BME280;66064;50.226;14.344;2023-09-19T00:20:41;98878.38;;;16.39;100.00
77112;BME280;66064;50.226;14.344;2023-09-19T00:23:08;98865.94;;;16.35;100.00
77112;BME280;66064;50.226;14.344;2023-09-19T00:25:35;98862.34;;;16.36;100.00
77112;BME280;66064;50.226;14.344;2023-09-19T00:28:03;98870.34;;;16.37;100.00
77112;BME280;66064;50.226;14.344;2023-09-19T00:30:30;98881.00;;;16.40;100.00
77112;BME280;66064;50.226;14.344;2023-09-19T00:32:56;98881.25;;;16.30;100.00
77112;BME280;66064;50.226;14.344;2023-09-19T00:35:23;98866.88;;;16.32;100.00
77112;BME280;66064;50.226;14.344;2023-09-19T00:37:53;98866.09;;;16.27;100.00
77112;BME280;66064;50.226;14.344;2023-09-19T00:40:19;98870.53;;;16.30;100.00
77112;BME280;66064;50.226;14.344;2023-09-19T00:42:48;98868.75;;;16.29;100.00
77112;BME280;66064;50.226;14.344;2023-09-19T00:45:17;98877.69;;;16.29;100.00
77112;BME280;66064;50.226;14.344;2023-09-19T00:47:44;98881.22;;;16.31;100.00
77112;BME280;66064;50.226;14.344;2023-09-19T00:50:13;98856.50;;;16.17;100.00
77112;BME280;66064;50.226;14.344;2023-09-19T00:52:42;98872.34;;;16.28;100.00
77112;BME280;66064;50.226;14.344;2023-09-19T00:55:10;98881.31;;;16.28;100.00
77112;BME280;66064;50.226;14.344;2023-09-19T00:57:40;98871.53;;;16.24;100.00
77112;BME280;66064;50.226;14.344;2023-09-19T01:00:07;98868.84;;;16.24;100.00
77112;BME280;66064;50.226;14.344;2023-09-19T01:02:37;98860.88;;;16.23;100.00
77112;BME280;66064;50.226;14.344;2023-09-19T01:05:03;98867.97;;;16.24;100.00
77112;BME280;66064;50.226;14.344;2023-09-19T01:07:32;98844.97;;;16.14;100.00
77112;BME280;66064;50.226;14.344;2023-09-19T01:10:03;98861.00;;;16.17;100.00
77112;BME280;66064;50.226;14.344;2023-09-19T01:12:52;98867.97;;;16.24;100.00
77112;BME280;66064;50.226;14.344;2023-09-19T01:23:23;98860.50;;;16.38;99.72
77112;BME280;66064;50.226;14.344;2023-09-19T01:31:34;98854.03;;;16.45;99.32
77112;BME280;66064;50.226;14.344;2023-09-19T01:34:03;98833.53;;;16.41;99.51
77112;BME280;66064;50.226;14.344;2023-09-19T01:36:35;98857.50;;;16.50;99.14
77112;BME280;66064;50.226;14.344;2023-09-19T01:39:08;98854.81;;;16.50;98.97
77112;BME280;66064;50.226;14.344;2023-09-19T01:41:54;98852.22;;;16.47;99.49
77112;BME280;66064;50.226;14.344;2023-09-19T01:44:31;98857.50;;;16.50;98.30
77112;BME280;66064;50.226;14.344;2023-09-19T01:47:08;98852.97;;;16.52;98.73
77112;BME280;66064;50.226;14.344;2023-09-19T01:50:20;98851.03;;;16.57;98.64
77112;BME280;66064;50.226;14.344;2023-09-19T01:52:57;98847.31;;;16.64;97.86
77112;BME280;66064;50.226;14.344;2023-09-19T01:55:26;98830.44;;;16.58;97.68
77112;BME280;66064;50.226;14.344;2023-09-19T01:58:04;98823.16;;;16.64;97.27
77112;BME280;66064;50.226;14.344;2023-09-19T02:00:35;98838.97;;;16.75;96.88
77112;BME280;66064;50.226;14.344;2023-09-19T02:03:03;98844.22;;;16.81;97.27
77112;BME280;66064;50.226;14.344;2023-09-19T02:05:30;98829.84;;;16.82;96.24
77112;BME280;66064;50.226;14.344;2023-09-19T02:07:56;98820.97;;;16.78;97.16
77112;BME280;66064;50.226;14.344;2023-09-19T02:10:24;98854.81;;;16.87;96.39
77112;BME280;66064;50.226;14.344;2023-09-19T02:12:50;98843.00;;;16.93;95.71
77112;BME280;66064;50.226;14.344;2023-09-19T02:15:17;98836.63;;;16.97;95.23
77112;BME280;66064;50.226;14.344;2023-09-19T02:17:43;98817.72;;;17.00;94.97
77112;BME280;66064;50.226;14.344;2023-09-19T02:20:11;98833.84;;;17.00;95.02
77112;BME280;66064;50.226;14.344;2023-09-19T02:22:41;98829.41;;;16.99;95.44
77112;BME280;66064;50.226;14.344;2023-09-19T02:25:08;98839.88;;;17.08;94.07
77112;BME280;66064;50.226;14.344;2023-09-19T02:27:34;98841.69;;;17.07;95.09
77112;BME280;66064;50.226;14.344;2023-09-19T02:30:00;98842.56;;;17.08;93.98
77112;BME280;66064;50.226;14.344;2023-09-19T02:32:30;98838.13;;;17.07;94.88
77112;BME280;66064;50.226;14.344;2023-09-19T02:35:02;98840.81;;;17.07;94.64
77112;BME280;66064;50.226;14.344;2023-09-19T02:37:31;98845.06;;;17.16;94.00
77112;BME280;66064;50.226;14.344;2023-09-19T02:39:57;98848.72;;;17.13;93.62
77112;BME280;66064;50.226;14.344;2023-09-19T02:42:23;98857.44;;;17.21;93.63
77112;BME280;66064;50.226;14.344;2023-09-19T02:44:49;98851.38;;;17.14;94.53
77112;BME280;66064;50.226;14.344;2023-09-19T02:47:14;98858.47;;;17.17;94.27
77112;BME280;66064;50.226;14.344;2023-09-19T02:49:42;98858.41;;;17.20;94.00
77112;BME280;66064;50.226;14.344;2023-09-19T02:52:08;98860.28;;;17.17;93.96
77112;BME280;66064;50.226;14.344;2023-09-19T02:54:34;98861.91;;;17.22;93.39
77112;BME280;66064;50.226;14.344;2023-09-19T02:57:00;98855.63;;;17.22;93.83
77112;BME280;66064;50.226;14.344;2023-09-19T02:59:26;98861.09;;;17.20;93.17
77112;BME280;66064;50.226;14.344;2023-09-19T03:01:53;98860.13;;;17.21;93.07
77112;BME280;66064;50.226;14.344;2023-09-19T03:04:20;98858.44;;;17.19;93.81
77112;BME280;66064;50.226;14.344;2023-09-19T03:06:46;98834.47;;;17.09;93.89
77112;BME280;66064;50.226;14.344;2023-09-19T03:09:17;98849.56;;;17.15;95.00
77112;BME280;66064;50.226;14.344;2023-09-19T03:11:42;98841.88;;;17.01;94.57
77112;BME280;66064;50.226;14.344;2023-09-19T03:14:10;98857.06;;;17.04;95.45
77112;BME280;66064;50.226;14.344;2023-09-19T03:16:36;98850.13;;;16.94;94.84
77112;BME280;66064;50.226;14.344;2023-09-19T03:19:04;98854.59;;;16.95;95.15
77112;BME280;66064;50.226;14.344;2023-09-19T03:21:31;98848.28;;;16.96;94.67
77112;BME280;66064;50.226;14.344;2023-09-19T03:23:57;98847.47;;;16.92;94.89
77112;BME280;66064;50.226;14.344;2023-09-19T03:26:23;98868.03;;;16.95;94.97
77112;BME280;66064;50.226;14.344;2023-09-19T03:28:49;98853.78;;;16.91;95.88
77112;BME280;66064;50.226;14.344;2023-09-19T03:31:14;98860.97;;;16.91;95.47
77112;BME280;66064;50.226;14.344;2023-09-19T03:33:40;98862.81;;;16.89;95.92
77112;BME280;66064;50.226;14.344;2023-09-19T03:36:07;98851.31;;;16.84;95.93
77112;BME280;66064;50.226;14.344;2023-09-19T03:38:34;98850.44;;;16.83;96.22
77112;BME280;66064;50.226;14.344;2023-09-19T03:41:01;98863.91;;;16.82;96.17
77112;BME280;66064;50.226;14.344;2023-09-19T03:43:28;98852.53;;;16.72;96.39
77112;BME280;66064;50.226;14.344;2023-09-19T03:45:54;98866.72;;;16.75;96.67
77112;BME280;66064;50.226;14.344;2023-09-19T03:48:20;98863.06;;;16.79;96.48
77112;BME280;66064;50.226;14.344;2023-09-19T03:50:48;98855.31;;;16.67;97.26
77112;BME280;66064;50.226;14.344;2023-09-19T03:53:14;98851.91;;;16.59;96.87
77112;BME280;66064;50.226;14.344;2023-09-19T03:55:39;98866.00;;;16.70;97.26
77112;BME280;66064;50.226;14.344;2023-09-19T03:58:06;98849.22;;;16.59;97.13
77112;BME280;66064;50.226;14.344;2023-09-19T04:00:32;98849.09;;;16.65;96.83
77112;BME280;66064;50.226;14.344;2023-09-19T04:03:00;98873.06;;;16.73;97.07
77112;BME280;66064;50.226;14.344;2023-09-19T04:05:31;98882.84;;;16.75;97.13
77112;BME280;66064;50.226;14.344;2023-09-19T04:07:57;98878.56;;;16.68;97.01
77112;BME280;66064;50.226;14.344;2023-09-19T04:10:23;98862.72;;;16.56;97.36
77112;BME280;66064;50.226;14.344;2023-09-19T04:12:53;98874.19;;;16.64;96.98
77112;BME280;66064;50.226;14.344;2023-09-19T04:15:20;98872.34;;;16.66;96.74
77112;BME280;66064;50.226;14.344;2023-09-19T04:17:51;98891.16;;;16.66;97.76
77112;BME280;66064;50.226;14.344;2023-09-19T04:20:18;98895.78;;;16.58;97.75
77112;BME280;66064;50.226;14.344;2023-09-19T04:22:50;98902.94;;;16.59;97.98
77112;BME280;66064;50.226;14.344;2023-09-19T04:25:16;98888.59;;;16.60;97.66
77112;BME280;66064;50.226;14.344;2023-09-19T04:27:44;98902.00;;;16.60;98.02
77112;BME280;66064;50.226;14.344;2023-09-19T04:30:10;98904.59;;;16.66;97.43
77112;BME280;66064;50.226;14.344;2023-09-19T04:32:38;98892.19;;;16.59;97.25
77112;BME280;66064;50.226;14.344;2023-09-19T04:35:07;98894.81;;;16.62;97.33
77112;BME280;66064;50.226;14.344;2023-09-19T04:37:39;98914.41;;;16.67;97.45
77112;BME280;66064;50.226;14.344;2023-09-19T04:40:08;98910.06;;;16.60;97.16
77112;BME280;66064;50.226;14.344;2023-09-19T04:42:42;98893.34;;;16.49;97.83
77112;BME280;66064;50.226;14.344;2023-09-19T04:45:09;98913.84;;;16.53;98.01
77112;BME280;66064;50.226;14.344;2023-09-19T04:47:39;98895.19;;;16.47;98.00
77112;BME280;66064;50.226;14.344;2023-09-19T04:50:08;98923.41;;;16.66;97.60
77112;BME280;66064;50.226;14.344;2023-09-19T04:52:41;98927.94;;;16.64;97.28
77112;BME280;66064;50.226;14.344;2023-09-19T04:55:11;98934.09;;;16.69;97.32
77112;BME280;66064;50.226;14.344;2023-09-19T04:57:46;98923.41;;;16.66;97.17
77112;BME280;66064;50.226;14.344;2023-09-19T05:00:18;98946.28;;;16.83;96.75
77112;BME280;66064;50.226;14.344;2023-09-19T05:02:52;98942.72;;;16.82;96.28
77112;BME280;66064;50.226;14.344;2023-09-19T05:05:18;98927.00;;;16.65;96.25
77112;BME280;66064;50.226;14.344;2023-09-19T05:07:45;98947.28;;;16.78;96.55
77112;BME280;66064;50.226;14.344;2023-09-19T05:10:12;98947.22;;;16.82;96.35
77112;BME280;66064;50.226;14.344;2023-09-19T05:12:40;98950.56;;;16.90;95.74
77112;BME280;66064;50.226;14.344;2023-09-19T05:15:07;98946.19;;;16.87;96.48
77112;BME280;66064;50.226;14.344;2023-09-19T05:17:35;98937.34;;;16.82;96.01
77112;BME280;66064;50.226;14.344;2023-09-19T05:20:02;98939.97;;;16.85;95.40
77112;BME280;66064;50.226;14.344;2023-09-19T05:22:41;98930.94;;;16.88;94.88
77112;BME280;66064;50.226;14.344;2023-09-19T05:25:09;98959.34;;;16.98;95.38
77112;BME280;66064;50.226;14.344;2023-09-19T05:27:36;98955.06;;;16.89;95.88
77112;BME280;66064;50.226;14.344;2023-09-19T05:30:02;98965.66;;;16.95;95.91
77112;BME280;66064;50.226;14.344;2023-09-19T05:32:29;98956.94;;;16.87;95.91
77112;BME280;66064;50.226;14.344;2023-09-19T05:34:54;98961.03;;;17.02;95.21
77112;BME280;66064;50.226;14.344;2023-09-19T05:37:22;98973.28;;;17.13;94.52
77112;BME280;66064;50.226;14.344;2023-09-19T05:39:49;98962.69;;;17.06;94.21
77112;BME280;66064;50.226;14.344;2023-09-19T05:42:15;98970.53;;;17.17;95.00
77112;BME280;66064;50.226;14.344;2023-09-19T05:44:41;98973.16;;;17.18;95.02
77112;BME280;66064;50.226;14.344;2023-09-19T05:47:07;98965.81;;;17.25;94.59
77112;BME280;66064;50.226;14.344;2023-09-19T05:49:37;98950.78;;;17.18;93.74
77112;BME280;66064;50.226;14.344;2023-09-19T05:52:07;98957.66;;;17.28;93.14
77112;BME280;66064;50.226;14.344;2023-09-19T05:54:33;98969.94;;;17.38;92.85
77112;BME280;66064;50.226;14.344;2023-09-19T05:57:00;98966.66;;;17.27;93.53
77112;BME280;66064;50.226;14.344;2023-09-19T05:59:27;98972.84;;;17.30;93.30
77112;BME280;66064;50.226;14.344;2023-09-19T06:01:54;98987.75;;;17.42;93.25
77112;BME280;66064;50.226;14.344;2023-09-19T06:04:19;98992.25;;;17.41;93.19
77112;BME280;66064;50.226;14.344;2023-09-19T06:06:46;98988.97;;;17.30;92.75
77112;BME280;66064;50.226;14.344;2023-09-19T06:09:14;99003.09;;;17.38;93.25
77112;BME280;66064;50.226;14.344;2023-09-19T06:11:43;99006.47;;;17.46;92.22
77112;BME280;66064;50.226;14.344;2023-09-19T06:14:09;99007.34;;;17.48;92.54
77112;BME280;66064;50.226;14.344;2023-09-19T06:16:36;98994.72;;;17.51;91.67
77112;BME280;66064;50.226;14.344;2023-09-19T06:19:06;99016.91;;;17.59;92.41
77112;BME280;66064;50.226;14.344;2023-09-19T06:21:34;99000.88;;;17.54;92.27
77112;BME280;66064;50.226;14.344;2023-09-19T06:24:00;99014.94;;;17.67;92.23
77112;BME280;66064;50.226;14.344;2023-09-19T06:26:26;99035.41;;;17.72;91.98
77112;BME280;66064;50.226;14.344;2023-09-19T06:28:53;99036.00;;;17.85;90.79
77112;BME280;66064;50.226;14.344;2023-09-19T06:31:19;99021.50;;;17.89;90.15
77112;BME280;66064;50.226;14.344;2023-09-19T06:33:49;99038.06;;;18.06;89.07
77112;BME280;66064;50.226;14.344;2023-09-19T06:36:15;99046.13;;;18.06;89.51
77112;BME280;66064;50.226;14.344;2023-09-19T06:38:40;99049.16;;;18.27;88.91
77112;BME280;66064;50.226;14.344;2023-09-19T06:41:07;99050.69;;;18.35;87.47
77112;BME280;66064;50.226;14.344;2023-09-19T06:43:34;99053.91;;;18.48;86.26
77112;BME280;66064;50.226;14.344;2023-09-19T06:46:01;99059.47;;;18.73;85.89
77112;BME280;66064;50.226;14.344;2023-09-19T06:48:28;99049.41;;;18.79;86.35
77112;BME280;66064;50.226;14.344;2023-09-19T06:50:59;99075.03;;;18.93;85.04
77112;BME280;66064;50.226;14.344;2023-09-19T06:53:34;99070.56;;;18.92;84.63
77112;BME280;66064;50.226;14.344;2023-09-19T06:56:02;99068.06;;;19.15;85.78
77112;BME280;66064;50.226;14.344;2023-09-19T06:58:28;99072.94;;;19.30;83.61
77112;BME280;66064;50.226;14.344;2023-09-19T07:00:54;99060.66;;;19.48;81.57
77112;BME280;66064;50.226;14.344;2023-09-19T07:03:20;99072.97;;;19.83;81.79
77112;BME280;66064;50.226;14.344;2023-09-19T07:05:48;99075.84;;;20.03;80.05
77112;BME280;66064;50.226;14.344;2023-09-19T07:08:14;99067.63;;;20.06;78.84
77112;BME280;66064;50.226;14.344;2023-09-19T07:10:42;99072.56;;;20.45;79.90
77112;BME280;66064;50.226;14.344;2023-09-19T07:13:15;99081.56;;;20.45;77.40
77112;BME280;66064;50.226;14.344;2023-09-19T07:15:44;99076.78;;;20.52;77.11
77112;BME280;66064;50.226;14.344;2023-09-19T07:18:16;99088.69;;;20.46;77.17
77112;BME280;66064;50.226;14.344;2023-09-19T07:20:44;99080.25;;;20.31;76.58
77112;BME280;66064;50.226;14.344;2023-09-19T07:23:20;99083.47;;;20.65;75.80
77112;BME280;66064;50.226;14.344;2023-09-19T07:25:49;99070.31;;;21.03;76.00
77112;BME280;66064;50.226;14.344;2023-09-19T07:28:15;99072.50;;;21.15;75.48
77112;BME280;66064;50.226;14.344;2023-09-19T07:30:41;99077.13;;;20.66;76.99
77112;BME280;66064;50.226;14.344;2023-09-19T07:33:08;99069.16;;;20.40;77.01
77112;BME280;66064;50.226;14.344;2023-09-19T07:35:38;99093.94;;;20.26;79.34
77112;BME280;66064;50.226;14.344;2023-09-19T07:38:07;99066.38;;;19.91;78.96
77112;BME280;66064;50.226;14.344;2023-09-19T07:40:33;99077.03;;;19.70;79.35
77112;BME280;66064;50.226;14.344;2023-09-19T07:42:59;99090.56;;;19.68;78.84
77112;BME280;66064;50.226;14.344;2023-09-19T07:45:31;99089.22;;;19.55;80.70
77112;BME280;66064;50.226;14.344;2023-09-19T07:47:58;99107.47;;;19.47;81.72
77112;BME280;66064;50.226;14.344;2023-09-19T07:50:34;99103.16;;;19.41;81.55
77112;BME280;66064;50.226;14.344;2023-09-19T07:53:03;99103.84;;;19.48;80.41
77112;BME280;66064;50.226;14.344;2023-09-19T07:55:30;99115.47;;;19.48;82.31
77112;BME280;66064;50.226;14.344;2023-09-19T07:57:59;99114.41;;;19.55;81.82
77112;BME280;66064;50.226;14.344;2023-09-19T08:00:26;99109.84;;;19.58;81.06
77112;BME280;66064;50.226;14.344;2023-09-19T08:02:52;99109.41;;;19.70;80.39
77112;BME280;66064;50.226;14.344;2023-09-19T08:05:18;99115.63;;;19.98;79.41
77112;BME280;66064;50.226;14.344;2023-09-19T08:07:45;99115.56;;;20.51;78.92
77112;BME280;66064;50.226;14.344;2023-09-19T08:10:15;99116.94;;;21.54;74.46
77112;BME280;66064;50.226;14.344;2023-09-19T08:12:42;99119.19;;;21.87;74.51
77112;BME280;66064;50.226;14.344;2023-09-19T08:15:17;99125.78;;;22.23;71.12
77112;BME280;66064;50.226;14.344;2023-09-19T08:17:43;99122.38;;;22.98;71.59
77112;BME280;66064;50.226;14.344;2023-09-19T08:20:10;99124.25;;;23.71;65.91
77112;BME280;66064;50.226;14.344;2023-09-19T08:22:52;99114.75;;;24.33;64.37
77112;BME280;66064;50.226;14.344;2023-09-19T08:25:21;99115.34;;;25.05;61.51
77112;BME280;66064;50.226;14.344;2023-09-19T08:27:48;99115.63;;;25.17;60.86
77112;BME280;66064;50.226;14.344;2023-09-19T08:30:16;99116.56;;;24.67;60.43
77112;BME280;66064;50.226;14.344;2023-09-19T08:32:43;99128.75;;;23.89;62.48
77112;BME280;66064;50.226;14.344;2023-09-19T08:35:13;99120.56;;;23.17;65.61
77112;BME280;66064;50.226;14.344;2023-09-19T08:37:39;99132.78;;;22.88;65.93
77112;BME280;66064;50.226;14.344;2023-09-19T08:40:06;99127.50;;;22.45;65.52
77112;BME280;66064;50.226;14.344;2023-09-19T08:42:52;99129.56;;;22.19;68.85
77112;BME280;66064;50.226;14.344;2023-09-19T08:45:24;99134.53;;;22.08;68.21
77112;BME280;66064;50.226;14.344;2023-09-19T08:50:28;99129.56;;;22.40;66.28
77112;BME280;66064;50.226;14.344;2023-09-19T08:53:00;99150.97;;;23.24;65.05
77112;BME280;66064;50.226;14.344;2023-09-19T08:55:28;99141.75;;;23.28;65.00
77112;BME280;66064;50.226;14.344;2023-09-19T08:58:07;99158.50;;;23.56;64.94
77112;BME280;66064;50.226;14.344;2023-09-19T09:00:36;99138.81;;;23.32;64.94
77112;BME280;66064;50.226;14.344;2023-09-19T09:03:03;99129.25;;;22.86;64.33
77112;BME280;66064;50.226;14.344;2023-09-19T09:05:33;99132.38;;;22.57;64.83
77112;BME280;66064;50.226;14.344;2023-09-19T09:08:02;99151.13;;;23.39;63.57
77112;BME280;66064;50.226;14.344;2023-09-19T09:10:31;99137.13;;;25.05;61.39
77112;BME280;66064;50.226;14.344;2023-09-19T09:12:58;99132.00;;;26.41;55.19
77112;BME280;66064;50.226;14.344;2023-09-19T09:15:24;99124.84;;;29.61;48.81
77112;BME280;66064;50.226;14.344;2023-09-19T09:17:51;99125.97;;;30.19;46.05
77112;BME280;66064;50.226;14.344;2023-09-19T09:20:20;99133.66;;;29.28;47.41
77112;BME280;66064;50.226;14.344;2023-09-19T09:22:53;99136.38;;;27.85;49.80
77112;BME280;66064;50.226;14.344;2023-09-19T09:25:20;99130.97;;;26.86;53.17
77112;BME280;66064;50.226;14.344;2023-09-19T09:28:00;99135.47;;;26.87;54.51
77112;BME280;66064;50.226;14.344;2023-09-19T09:30:34;99133.19;;;27.65;49.13
77112;BME280;66064;50.226;14.344;2023-09-19T09:33:11;99131.91;;;29.40;45.34
77112;BME280;66064;50.226;14.344;2023-09-19T09:35:58;99121.59;;;30.98;42.01
77112;BME280;66064;50.226;14.344;2023-09-19T09:38:48;99127.91;;;31.98;40.64
77112;BME280;66064;50.226;14.344;2023-09-19T09:41:16;99110.94;;;31.82;38.57
77112;BME280;66064;50.226;14.344;2023-09-19T09:43:53;99120.38;;;32.76;37.46
77112;BME280;66064;50.226;14.344;2023-09-19T09:46:21;99101.03;;;32.55;36.97
77112;BME280;66064;50.226;14.344;2023-09-19T09:51:50;99120.19;;;33.89;35.86
77112;BME280;66064;50.226;14.344;2023-09-19T09:54:26;99105.53;;;32.97;36.22
77112;BME280;66064;50.226;14.344;2023-09-19T09:57:00;99114.28;;;34.23;36.19
77112;BME280;66064;50.226;14.344;2023-09-19T10:02:21;99116.28;;;33.00;36.14
77112;BME280;66064;50.226;14.344;2023-09-19T10:04:51;99121.97;;;31.38;38.61
77112;BME280;66064;50.226;14.344;2023-09-19T10:07:31;99124.81;;;30.21;42.83
77112;BME280;66064;50.226;14.344;2023-09-19T10:10:33;99130.44;;;28.45;43.99
77112;BME280;66064;50.226;14.344;2023-09-19T10:13:11;99129.00;;;30.38;42.17
77112;BME280;66064;50.226;14.344;2023-09-19T10:15:48;99125.13;;;30.06;40.05
77112;BME280;66064;50.226;14.344;2023-09-19T10:18:24;99116.28;;;30.02;38.97
77112;BME280;66064;50.226;14.344;2023-09-19T10:20:51;99130.28;;;29.74;40.64
77112;BME280;66064;50.226;14.344;2023-09-19T10:23:20;99136.22;;;31.20;39.81
77112;BME280;66064;50.226;14.344;2023-09-19T10:25:50;99114.31;;;32.29;36.31
77112;BME280;66064;50.226;14.344;2023-09-19T10:28:18;99124.81;;;33.18;34.63
77112;BME280;66064;50.226;14.344;2023-09-19T10:30:49;99124.38;;;33.44;35.60
77112;BME280;66064;50.226;14.344;2023-09-19T10:33:18;99122.72;;;34.69;32.35
77112;BME280;66064;50.226;14.344;2023-09-19T10:35:49;99115.81;;;33.96;33.14
77112;BME280;66064;50.226;14.344;2023-09-19T10:38:26;99126.91;;;34.16;30.94
77112;BME280;66064;50.226;14.344;2023-09-19T10:40:55;99114.44;;;34.41;30.63
77112;BME280;66064;50.226;14.344;2023-09-19T10:43:30;99115.47;;;32.68;33.42
77112;BME280;66064;50.226;14.344;2023-09-19T10:46:01;99116.41;;;33.90;29.90
77112;BME280;66064;50.226;14.344;2023-09-19T10:48:30;99120.59;;;33.94;31.36
77112;BME280;66064;50.226;14.344;2023-09-19T10:51:07;99120.84;;;34.51;28.86
77112;BME280;66064;50.226;14.344;2023-09-19T10:54:27;99118.78;;;34.82;30.27
77112;BME280;66064;50.226;14.344;2023-09-19T10:56:36;99120.81;;;34.22;29.52
77112;BME280;66064;50.226;14.344;2023-09-19T10:59:16;99131.09;;;34.00;31.04
77112;BME280;66064;50.226;14.344;2023-09-19T11:01:46;99118.66;;;33.05;30.77
77112;BME280;66064;50.226;14.344;2023-09-19T11:04:32;99117.19;;;32.80;33.13
77112;BME280;66064;50.226;14.344;2023-09-19T11:07:35;99120.53;;;32.42;32.29
77112;BME280;66064;50.226;14.344;2023-09-19T11:09:56;99128.66;;;30.78;33.56
77112;BME280;66064;50.226;14.344;2023-09-19T11:26:43;99128.84;;;31.21;33.79
77112;BME280;66064;50.226;14.344;2023-09-19T11:29:31;99137.19;;;31.97;33.83
77112;BME280;66064;50.226;14.344;2023-09-19T11:31:58;99130.75;;;31.32;31.70
77112;BME280;66064;50.226;14.344;2023-09-19T11:38:08;99115.72;;;31.58;32.30
77112;BME280;66064;50.226;14.344;2023-09-19T11:40:09;99106.94;;;30.75;32.99
77112;BME280;66064;50.226;14.344;2023-09-19T11:42:43;99117.31;;;30.82;30.30
77112;BME280;66064;50.226;14.344;2023-09-19T11:48:18;99114.66;;;30.35;30.21
77112;BME280;66064;50.226;14.344;2023-09-19T11:50:45;99130.00;;;29.66;32.59
77112;BME280;66064;50.226;14.344;2023-09-19T11:53:13;99117.88;;;29.32;33.30
77112;BME280;66064;50.226;14.344;2023-09-19T11:55:41;99120.69;;;29.55;33.18
77112;BME280;66064;50.226;14.344;2023-09-19T11:58:12;99123.59;;;29.78;34.43
77112;BME280;66064;50.226;14.344;2023-09-19T12:00:45;99125.28;;;29.55;34.48
77112;BME280;66064;50.226;14.344;2023-09-19T12:03:12;99116.28;;;29.04;34.40
77112;BME280;66064;50.226;14.344;2023-09-19T12:05:40;99124.03;;;29.72;33.06
77112;BME280;66064;50.226;14.344;2023-09-19T12:08:09;99123.41;;;30.64;32.08
77112;BME280;66064;50.226;14.344;2023-09-19T12:10:50;99127.63;;;30.33;31.43
77112;BME280;66064;50.226;14.344;2023-09-19T12:13:18;99125.34;;;30.50;31.21
77112;BME280;66064;50.226;14.344;2023-09-19T12:15:45;99120.66;;;29.68;32.96
77112;BME280;66064;50.226;14.344;2023-09-19T12:18:29;99131.50;;;28.82;35.44
77112;BME280;66064;50.226;14.344;2023-09-19T12:20:56;99131.88;;;27.84;35.50
77112;BME280;66064;50.226;14.344;2023-09-19T12:23:24;99135.00;;;27.78;37.51
77112;BME280;66064;50.226;14.344;2023-09-19T12:25:52;99125.06;;;27.77;38.25
77112;BME280;66064;50.226;14.344;2023-09-19T12:28:20;99130.94;;;27.71;38.16
77112;BME280;66064;50.226;14.344;2023-09-19T12:30:47;99136.22;;;27.74;38.31
77112;BME280;66064;50.226;14.344;2023-09-19T12:33:20;99125.53;;;27.43;35.70
77112;BME280;66064;50.226;14.344;2023-09-19T12:35:47;99121.03;;;27.42;37.70
77112;BME280;66064;50.226;14.344;2023-09-19T12:38:28;99120.19;;;27.27;36.95
77112;BME280;66064;50.226;14.344;2023-09-19T12:40:57;99107.19;;;27.16;37.30
77112;BME280;66064;50.226;14.344;2023-09-19T12:43:31;99101.59;;;27.46;36.08
77112;BME280;66064;50.226;14.344;2023-09-19T12:46:01;99119.22;;;27.69;36.70
77112;BME280;66064;50.226;14.344;2023-09-19T12:48:28;99106.84;;;27.64;35.61
77112;BME280;66064;50.226;14.344;2023-09-19T12:51:09;99108.91;;;27.46;37.18
77112;BME280;66064;50.226;14.344;2023-09-19T12:53:45;99110.72;;;27.18;38.45
77112;BME280;66064;50.226;14.344;2023-09-19T12:56:15;99117.81;;;26.78;39.11
77112;BME280;66064;50.226;14.344;2023-09-19T12:58:54;99107.19;;;27.16;38.71
77112;BME280;66064;50.226;14.344;2023-09-19T13:01:20;99109.72;;;26.91;39.60
77112;BME280;66064;50.226;14.344;2023-09-19T13:04:14;99117.53;;;27.11;38.73
77112;BME280;66064;50.226;14.344;2023-09-19T13:06:44;99108.00;;;27.04;38.14
77112;BME280;66064;50.226;14.344;2023-09-19T13:09:11;99121.72;;;27.31;39.21
77112;BME280;66064;50.226;14.344;2023-09-19T13:11:38;99096.44;;;26.57;37.70
77112;BME280;66064;50.226;14.344;2023-09-19T13:14:14;99105.78;;;26.53;39.23
77112;BME280;66064;50.226;14.344;2023-09-19T13:19:39;99106.38;;;26.43;40.31
77112;BME280;66064;50.226;14.344;2023-09-19T13:22:37;99112.84;;;25.65;40.12
77112;BME280;66064;50.226;14.344;2023-09-19T13:25:09;99092.88;;;25.33;39.00
77112;BME280;66064;50.226;14.344;2023-09-19T13:27:45;99117.06;;;25.55;40.74
77112;BME280;66064;50.226;14.344;2023-09-19T13:30:12;99109.50;;;25.44;41.45
77112;BME280;66064;50.226;14.344;2023-09-19T13:32:38;99106.63;;;25.48;40.53
77112;BME280;66064;50.226;14.344;2023-09-19T13:35:07;99114.03;;;24.97;42.69
77112;BME280;66064;50.226;14.344;2023-09-19T13:37:37;99094.47;;;24.89;41.11
77112;BME280;66064;50.226;14.344;2023-09-19T13:40:11;99104.69;;;24.68;43.52
77112;BME280;66064;50.226;14.344;2023-09-19T13:42:37;99087.25;;;24.72;44.28
77112;BME280;66064;50.226;14.344;2023-09-19T13:45:04;99111.06;;;24.84;44.06
77112;BME280;66064;50.226;14.344;2023-09-19T13:47:31;99106.06;;;24.92;43.72
77112;BME280;66064;50.226;14.344;2023-09-19T13:49:59;99102.53;;;25.07;42.35